Avon, CO

11:17 AM MDT on April 27, 2015 (GMT -0600)
Whiskey Hill, EagleVail | | Change Station
CLOSE
Current Station
Personal Weather Station
Location: Avon, CO
Elevation: 7959 ft
Nearby Weather Stations

Elev 7959 ft 39.61 °N, 106.48 °W | Updated 2 minutes ago

Partly Cloudy
Partly Cloudy
47.7 °F
Feels Like 48 °F
N
2.7
Wind Variable Wind from North
Gusts 4.9 mph

Today
High -- | Low -- °F
--% Chance of Precip.
Yesterday
High -- | Low -- °F
Precip. -- in
6:12 AM 7:55 PM
Waxing Gibbous, 66% visible
Pressure 30.18 in
Visibility 10.0 miles
Clouds Scattered Clouds 6000 ft
Windchill 48 °F
Dew Point 15 °F
Humidity 27%
Rainfall 0.00 in
Snow Depth Not available.
UV 7 out of 12
Pollen 3.10 out of 12
Air Quality Not available.
Flu Activity Sporadic
METAR KEGE 271650Z 00000KT 10SM SCT060 09/02 A3018

More Conditions Fewer Conditions

Pressure 30.18 in
Visibility 10.0 miles
Clouds Scattered Clouds 6000 ft
Windchill 48 °F
Dew Point 15 °F
Humidity 27%
Rainfall 0.00 in
Snow Depth Not available.
UV 7 out of 12
Pollen 3.10 out of 12
Air Quality Not available.
Flu Activity Sporadic
METAR KEGE 271650Z 00000KT 10SM SCT060 09/02 A3018

More Conditions Fewer Conditions

10-Day Weather Forecast

Almanac

Astronomy

Apr. 27, 2015 Rise Set
Actual Time
Civil Twilight
Nautical Twilight
Astronomical Twilight
Moon
Length of Visible Light
Length of Day
Tomorrow will be .
, % of the Moon is Illuminated

Today's Extremes

State Highs State Lows

Community

WunderPhotos

Upload Photos

1,817,346 photos uploaded!

WunderBlogs® & News

Nearby

Air Quality

  Air Quality AQ Index Pollutant
Not available.

Snow Depth

Station Depth Elevation

Earthquake Activity

City Distance Mag. Time & Date
Minimum magnitude displayed is 2.5.

Coastal Water Temperatures

Place Temperature

Stations

Nearby Weather Stations

Station Location Temp. Windchill Dew Point Humidity Wind Precip. Elev Updated Type